Data for 08/18/2016

Time Sea-Level Adjusted Pressure Absolute Pressure Temperature Relative Humidity Dew Point   
(mb) (inHg) (mb) (inHg) (C) (F) (%) (C) (F)
00:05 1023 30.21 852 25.16 20.5 69 42 7.3 45.2
00:10 1023 30.21 852 25.16 20.4 68.8 42 7.2 45
00:15 1023 30.21 852 25.16 20.3 68.6 43 7.4 45.3
00:20 1023 30.21 852 25.16 20.4 68.7 43 7.5 45.6
00:25 1023 30.21 852 25.16 20.3 68.5 45 8 46.4
00:30 1023 30.21 852 25.16 20.2 68.4 44 7.6 45.7
00:35 1023 30.21 852 25.16 20.3 68.5 43 7.3 45.1
00:40 1023 30.21 852 25.16 20.2 68.4 43 7.3 45.2
00:45 1023 30.21 852 25.16 20.1 68.2 44 7.7 45.8
00:50 1023 30.21 852 25.16 19.9 67.8 43 7.2 44.9
00:55 1023 30.21 852 25.16 20.2 68.3 40 6.4 43.6
01:00 1023 30.21 852 25.16 20.5 68.9 41 7.1 44.8
01:05 1023 30.21 852 25.16 20.4 68.6 42 7.1 44.8
01:10 1023 30.21 852 25.16 20.1 68.2 44 7.5 45.5
01:15 1023 30.21 852 25.16 20.1 68.1 41 6.5 43.8
01:20 1023 30.21 852 25.16 20.3 68.6 42 7 44.6
01:25 1023 30.21 852 25.16 20.2 68.4 43 7.5 45.6
01:30 1022 30.18 852 25.16 20.5 68.8 40 6.6 43.9
01:35 1022 30.18 852 25.16 20.6 69 40 6.8 44.3
01:40 1022 30.18 852 25.16 20.5 68.8 43 7.5 45.5
01:45 1022 30.18 852 25.16 20.3 68.5 42 7.2 45
01:50 1022 30.18 852 25.16 20 68 45 7.7 45.9
01:55 1022 30.18 851 25.13 20 67.9 45 7.8 46.1
02:00 1022 30.18 851 25.13 20 68.1 43 7.2 45
02:05 1022 30.18 851 25.13 19.8 67.7 44 7.5 45.4
02:10 1022 30.18 852 25.16 19.5 67.1 44 7.2 44.9
02:15 1022 30.18 852 25.16 19.3 66.7 44 6.9 44.4
02:20 1022 30.18 852 25.16 19.2 66.6 44 6.8 44.2
02:25 1022 30.18 851 25.13 19.2 66.6 44 6.8 44.3
02:30 1022 30.18 851 25.13 19.2 66.6 45 7 44.6
02:35 1022 30.18 851 25.13 19.2 66.5 46 7.5 45.5
02:40 1022 30.18 851 25.13 18.8 65.8 48 7.6 45.6
02:45 1022 30.18 851 25.13 18.7 65.6 52 8.6 47.5
02:50 1022 30.18 851 25.13 18.5 65.2 53 8.8 47.8
02:55 1022 30.18 851 25.13 18.2 64.7 53 8.5 47.3
03:00 1022 30.18 851 25.13 18 64.5 52 8.2 46.7
03:05 1022 30.18 851 25.13 18.1 64.5 51 8 46.5
03:10 1022 30.18 851 25.13 18.2 64.7 51 8.1 46.6
03:15 1022 30.18 851 25.13 18.2 64.7 54 8.8 47.8
03:20 1022 30.18 851 25.13 18.3 64.9 51 8.1 46.6
03:25 1022 30.18 851 25.13 18.3 65 52 8.5 47.3
03:30 1022 30.18 851 25.13 18.4 65.1 50 8 46.4
03:35 1022 30.18 851 25.13 18.5 65.3 49 7.5 45.6
03:40 1022 30.18 851 25.13 18.6 65.4 47 7.1 44.8
03:45 1022 30.18 851 25.13 18.7 65.7 46 7 44.6
03:50 1022 30.18 851 25.13 19 66.1 45 7 44.5
03:55 1022 30.18 851 25.13 19.1 66.3 45 7 44.6
04:00 1022 30.18 851 25.13 19 66.3 45 6.9 44.5
04:05 1022 30.18 851 25.13 19 66.3 44 6.8 44.2
04:10 1022 30.18 851 25.13 19.1 66.3 47 7.6 45.7
04:15 1022 30.18 851 25.13 19.1 66.3 45 7.1 44.7
04:20 1022 30.18 851 25.13 18.8 65.8 49 8 46.4
04:25 1022 30.18 851 25.13 18.3 65 47 6.9 44.4
04:30 1022 30.18 851 25.13 18.5 65.3 46 6.9 44.5
04:35 1022 30.18 851 25.13 18.5 65.2 48 7.5 45.4
04:40 1022 30.18 851 25.13 18.2 64.8 49 7.3 45.2
04:45 1022 30.18 851 25.13 18.4 65.2 45 6.6 43.8
04:50 1022 30.18 851 25.13 18.8 65.9 43 6 42.9
04:55 1022 30.18 851 25.13 19.3 66.7 41 6 42.8
05:00 1022 30.18 851 25.13 19.5 67 41 5.9 42.6
05:05 1022 30.18 851 25.13 19.6 67.2 41 6.2 43.2
05:10 1022 30.18 851 25.13 19.5 67.1 43 6.6 43.8
05:15 1022 30.18 851 25.13 19.3 66.7 43 6.6 44
05:20 1022 30.18 851 25.13 19.2 66.6 45 7.1 44.7
05:25 1022 30.18 851 25.13 19 66.2 46 7.1 44.9
05:30 1022 30.18 851 25.13 18.8 65.9 46 7.1 44.8
05:35 1022 30.18 851 25.13 18.7 65.6 48 7.6 45.7
05:40 1022 30.18 852 25.16 18.5 65.2 50 7.8 46.1
05:45 1022 30.18 852 25.16 18.4 65.1 51 8.3 46.9
05:50 1023 30.21 852 25.16 18.2 64.7 54 8.7 47.6
05:55 1023 30.21 852 25.16 17.9 64.1 55 8.8 47.8
06:00 1023 30.21 852 25.16 17.7 63.8 57 9.1 48.4
06:05 1023 30.21 852 25.16 17.5 63.5 59 9.4 49
06:10 1023 30.21 852 25.16 17.3 63.2 60 9.7 49.4
06:15 1023 30.21 852 25.16 17.2 62.9 61 9.8 49.6
06:20 1023 30.21 852 25.16 17 62.6 63 10 49.9
06:25 1023 30.21 852 25.16 16.9 62.5 64 10.2 50.4
06:30 1023 30.21 852 25.16 16.8 62.2 65 10.3 50.6
06:35 1023 30.21 852 25.16 16.7 62 66 10.4 50.7
06:40 1023 30.21 852 25.16 16.5 61.8 67 10.5 50.8
06:45 1023 30.21 852 25.16 16.5 61.6 68 10.5 51
06:50 1023 30.21 852 25.16 16.5 61.6 68 10.5 51
06:55 1023 30.21 853 25.19 16.4 61.6 68 10.6 51.1
07:00 1023 30.21 853 25.19 16.4 61.5 68 10.6 51
07:05 1024 30.24 853 25.19 16.4 61.5 68 10.6 51.1
07:10 1024 30.24 853 25.19 16.3 61.3 69 10.8 51.4
07:15 1024 30.24 853 25.19 16.2 61.2 70 10.7 51.3
07:20 1024 30.24 853 25.19 16.2 61.2 70 10.8 51.4
07:25 1024 30.24 853 25.19 16.3 61.3 69 10.7 51.3
07:30 1024 30.24 853 25.19 16.4 61.5 69 10.7 51.3
07:35 1024 30.24 853 25.19 16.4 61.5 69 10.7 51.2
07:40 1024 30.24 853 25.19 16.3 61.3 69 10.7 51.3
07:45 1024 30.24 853 25.19 16.2 61.1 70 10.7 51.2
07:50 1024 30.24 853 25.19 16.1 61 70 10.8 51.4
07:55 1024 30.24 853 25.19 16.2 61.1 70 10.7 51.2
08:00 1024 30.24 853 25.19 16 60.7 71 10.7 51.3
08:05 1024 30.24 853 25.19 15.8 60.4 72 10.7 51.3
08:10 1024 30.24 853 25.19 15.6 60.1 72 10.6 51.1
08:15 1024 30.24 853 25.19 15.5 59.9 72 10.6 51.1
08:20 1024 30.24 853 25.19 15.4 59.6 73 10.5 50.9
08:25 1024 30.24 853 25.19 15.2 59.3 70 9.9 49.8
08:30 1024 30.24 853 25.19 15.1 59.1 69 9.6 49.2
08:35 1024 30.24 853 25.19 15 58.9 67 8.9 48.1
08:40 1024 30.24 853 25.19 14.9 58.7 63 8 46.5
08:45 1024 30.24 853 25.19 14.8 58.6 61 7.5 45.4
08:50 1024 30.24 853 25.19 14.8 58.7 59 6.9 44.4
08:55 1024 30.24 853 25.19 15 58.9 55 6 42.8
09:00 1024 30.24 853 25.19 14.9 58.7 53 5.3 41.6
09:05 1024 30.24 853 25.19 14.9 58.7 51 5 40.9
09:10 1024 30.24 853 25.19 14.8 58.6 52 5.1 41.1
09:15 1024 30.24 853 25.19 14.7 58.4 52 5 41
09:20 1024 30.24 853 25.19 14.6 58.3 52 5 41.1
09:25 1024 30.24 854 25.22 14.6 58.2 52 4.8 40.6
09:30 1024 30.24 854 25.22 14.7 58.5 51 4.7 40.5
09:35 1024 30.24 854 25.22 14.8 58.6 51 4.8 40.6
09:40 1024 30.24 854 25.22 14.9 58.7 51 4.9 40.8
09:45 1024 30.24 854 25.22 14.9 58.8 52 5.1 41.1
09:50 1024 30.24 854 25.22 14.9 58.8 52 5.2 41.3
09:55 1024 30.24 854 25.22 14.9 58.8 53 5.5 41.8
10:00 1024 30.24 854 25.22 14.9 58.8 54 5.6 42.1
10:05 1024 30.24 854 25.22 15.1 59.3 53 5.8 42.4
10:10 1024 30.24 854 25.22 15.2 59.4 54 6.1 43
10:15 1024 30.24 854 25.22 15.2 59.3 54 6.1 43
10:20 1024 30.24 854 25.22 15.3 59.5 54 6.1 43
10:25 1024 30.24 854 25.22 15.2 59.4 55 6.3 43.3
10:30 1025 30.27 854 25.22 15.4 59.8 54 6.4 43.4
10:35 1025 30.27 854 25.22 15.3 59.5 55 6.3 43.4
10:40 1025 30.27 854 25.22 15.4 59.8 54 6.3 43.3
10:45 1025 30.27 854 25.22 15.6 60 55 6.6 44
10:50 1025 30.27 854 25.22 15.7 60.3 53 6.3 43.4
10:55 1025 30.27 854 25.22 15.9 60.6 54 6.7 44.1
11:00 1025 30.27 854 25.22 15.7 60.3 55 6.7 44.1
11:05 1024 30.24 854 25.22 15.8 60.4 55 6.7 44.1
11:10 1024 30.24 854 25.22 16.1 61 54 6.8 44.3
11:15 1024 30.24 854 25.22 16.2 61.1 54 7 44.6
11:20 1024 30.24 854 25.22 16.1 61 54 6.8 44.2
11:25 1024 30.24 854 25.22 16.6 61.9 51 6.6 43.9
11:30 1024 30.24 854 25.22 16.9 62.4 51 6.8 44.2
11:35 1024 30.24 853 25.19 17.1 62.7 50 6.8 44.3
11:40 1024 30.24 853 25.19 17.3 63.2 49 6.7 44.1
11:45 1024 30.24 853 25.19 17.4 63.3 52 7.5 45.5
11:50 1024 30.24 853 25.19 17.2 62.9 50 6.7 44.1
11:55 1024 30.24 853 25.19 17.5 63.5 50 7.2 44.9
12:00 1024 30.24 853 25.19 17.4 63.3 50 7 44.6
12:05 1024 30.24 853 25.19 17.6 63.7 49 6.9 44.4
12:10 1024 30.24 853 25.19 17.7 63.9 49 7 44.6
12:15 1024 30.24 853 25.19 17.8 64 50 7.3 45.2
12:20 1024 30.24 853 25.19 18 64.4 48 6.9 44.3
12:25 1023 30.21 853 25.19 18.2 64.8 48 7.2 44.9
12:30 1023 30.21 853 25.19 18.3 64.9 47 6.9 44.5
12:35 1023 30.21 853 25.19 18.7 65.7 46 7.1 44.8
12:40 1023 30.21 852 25.16 18.7 65.7 47 7.3 45.2
12:45 1023 30.21 852 25.16 18.9 65.9 46 7.1 44.8
12:50 1023 30.21 852 25.16 19.1 66.3 45 7.1 44.8
12:55 1023 30.21 852 25.16 19.5 67.1 45 7.3 45.1
13:00 1023 30.21 852 25.16 19.7 67.5 45 7.5 45.5
13:05 1023 30.21 852 25.16 19.9 67.9 43 7.2 45
13:10 1023 30.21 852 25.16 20.1 68.2 42 7.1 44.8
13:15 1023 30.21 852 25.16 20 67.9 44 7.4 45.3
13:20 1023 30.21 852 25.16 19.9 67.9 43 7.2 44.9
13:25 1023 30.21 852 25.16 20.3 68.5 43 7.3 45.2
13:30 1023 30.21 852 25.16 20.3 68.6 43 7.5 45.5
13:35 1023 30.21 852 25.16 20.3 68.6 43 7.4 45.3
13:40 1023 30.21 852 25.16 20.1 68.2 43 7.3 45.2
13:45 1023 30.21 852 25.16 20.4 68.6 42 7 44.7
13:50 1022 30.18 852 25.16 20.5 68.9 41 7.1 44.8
13:55 1022 30.18 852 25.16 20.4 68.7 43 7.5 45.5
14:00 1022 30.18 852 25.16 20.3 68.5 42 7.2 45
14:05 1022 30.18 852 25.16 20.5 69 42 7.3 45.1
14:10 1022 30.18 852 25.16 20.6 69.2 41 7.2 45
14:15 1022 30.18 851 25.13 20.5 68.9 43 7.5 45.5
14:20 1022 30.18 851 25.13 20.4 68.7 43 7.6 45.7
14:25 1022 30.18 851 25.13 20.4 68.6 43 7.7 45.8
14:30 1022 30.18 851 25.13 20.1 68.2 45 7.8 46
14:35 1022 30.18 851 25.13 20.3 68.6 43 7.5 45.5
14:40 1022 30.18 851 25.13 20.1 68.1 43 7.1 44.9
14:45 1022 30.18 851 25.13 20.2 68.3 44 7.5 45.6
14:50 1022 30.18 851 25.13 20.6 69 43 7.6 45.7
14:55 1022 30.18 851 25.13 20.5 69 43 7.8 46
15:00 1022 30.18 851 25.13 20.3 68.5 43 7.5 45.5
15:05 1022 30.18 851 25.13 20.4 68.7 44 7.7 45.9
15:10 1022 30.18 851 25.13 20.8 69.4 42 7.7 45.8
15:15 1022 30.18 851 25.13 20.5 68.8 44 7.9 46.2
15:20 1022 30.18 851 25.13 20.4 68.7 44 7.9 46.1
15:25 1022 30.18 851 25.13 20.5 69 43 7.7 45.8
15:30 1022 30.18 851 25.13 20.5 68.8 44 7.8 46
15:35 1021 30.15 851 25.13 20.4 68.8 44 8 46.5
15:40 1021 30.15 851 25.13 20.1 68.2 45 7.9 46.2
15:45 1021 30.15 851 25.13 20.1 68.3 45 8 46.3
15:50 1021 30.15 851 25.13 20.3 68.6 45 8.1 46.5
15:55 1021 30.15 850 25.1 20.3 68.6 44 8 46.3
16:00 1021 30.15 850 25.1 20.4 68.7 44 8 46.4
16:05 1021 30.15 850 25.1 20.5 68.9 44 8 46.4
16:10 1021 30.15 850 25.1 20.4 68.7 44 7.9 46.3
16:15 1021 30.15 850 25.1 20.3 68.5 47 8.6 47.5
16:20 1021 30.15 850 25.1 20.1 68.2 45 8 46.4
16:25 1021 30.15 850 25.1 20.1 68.2 45 8 46.4
16:30 1021 30.15 850 25.1 20.1 68.2 46 8.4 47.1
16:35 1021 30.15 850 25.1 20.2 68.3 45 8 46.3
16:40 1021 30.15 850 25.1 20.1 68.2 47 8.6 47.4
16:45 1021 30.15 850 25.1 20.1 68.1 46 8.2 46.7
16:50 1021 30.15 850 25.1 20.1 68.2 46 8.3 46.9
16:55 1021 30.15 850 25.1 19.8 67.7 47 8.4 47
17:00 1021 30.15 850 25.1 20.1 68.1 46 8.2 46.8
17:05 1021 30.15 850 25.1 20.2 68.3 46 8.4 47.1
17:10 1021 30.15 850 25.1 20.2 68.3 47 8.6 47.5
17:15 1021 30.15 850 25.1 20 68.1 47 8.5 47.2
17:20 1021 30.15 850 25.1 19.9 67.7 47 8.5 47.3
17:25 1020 30.12 850 25.1 19.9 67.9 47 8.4 47.1
17:30 1021 30.15 850 25.1 19.7 67.4 47 8.2 46.7
17:35 1021 30.15 850 25.1 19.7 67.4 48 8.5 47.4
17:40 1021 30.15 850 25.1 19.7 67.4 48 8.4 47
17:45 1020 30.12 850 25.1 19.7 67.4 47 8.1 46.6
17:50 1020 30.12 850 25.1 19.6 67.3 47 8.2 46.8
17:55 1020 30.12 850 25.1 19.6 67.2 48 8.3 46.9
18:00 1020 30.12 850 25.1 19.8 67.6 47 8.1 46.6
18:05 1020 30.12 850 25.1 19.5 67.2 48 8.3 46.9
18:10 1020 30.12 850 25.1 19.3 66.7 48 8.1 46.6
18:15 1020 30.12 850 25.1 19.2 66.5 48 8.1 46.6
18:20 1020 30.12 849 25.07 19.2 66.5 48 8.1 46.6
18:25 1020 30.12 849 25.07 19.3 66.7 48 8.2 46.8
18:30 1020 30.12 849 25.07 18.8 65.9 49 8.1 46.6
18:35 1020 30.12 849 25.07 18.6 65.5 50 8 46.4
18:40 1020 30.12 849 25.07 18.5 65.3 50 8.1 46.6
18:45 1020 30.12 850 25.1 18.5 65.3 50 8.1 46.5
18:50 1020 30.12 850 25.1 18.4 65.1 51 8.1 46.6
18:55 1020 30.12 850 25.1 18.3 65 51 8.2 46.7
19:00 1020 30.12 850 25.1 18.1 64.5 52 8.1 46.7
19:05 1020 30.12 850 25.1 17.9 64.2 53 8.2 46.7
19:10 1020 30.12 850 25.1 17.8 64 53 8 46.5
19:15 1020 30.12 850 25.1 17.7 63.8 53 8.1 46.5
19:20 1020 30.12 849 25.07 17.7 63.8 52 7.9 46.2
19:25 1020 30.12 849 25.07 17.7 63.8 52 7.9 46.2
19:30 1020 30.12 850 25.1 17.7 63.8 52 7.9 46.3
19:35 1020 30.12 850 25.1 17.7 63.8 52 7.9 46.2
19:40 1020 30.12 850 25.1 17.5 63.5 53 8 46.3
19:45 1020 30.12 850 25.1 17.4 63.3 53 7.9 46.3
19:50 1020 30.12 850 25.1 17.2 63 54 8 46.3
19:55 1020 30.12 850 25.1 17.1 62.8 55 8 46.3
20:00 1021 30.15 850 25.1 17 62.6 55 7.9 46.3
20:05 1021 30.15 850 25.1 16.9 62.5 55 7.9 46.3
20:10 1021 30.15 850 25.1 16.9 62.3 55 7.9 46.2
20:15 1020 30.12 850 25.1 16.8 62.2 55 7.8 46
20:20 1020 30.12 850 25.1 16.8 62.2 55 7.7 45.9
20:25 1021 30.15 850 25.1 16.7 62.1 55 7.7 45.9
20:30 1021 30.15 850 25.1 16.7 62 55 7.8 46
20:35 1021 30.15 850 25.1 16.6 61.9 55 7.7 45.9
20:40 1021 30.15 850 25.1 16.5 61.8 56 7.8 46
20:45 1020 30.12 850 25.1 16.4 61.6 56 7.8 46
20:50 1021 30.15 850 25.1 16.4 61.5 56 7.8 46
20:55 1021 30.15 850 25.1 16.3 61.3 57 7.7 45.9
21:00 1021 30.15 850 25.1 16.3 61.3 57 7.7 45.9
21:05 1021 30.15 850 25.1 16.2 61.2 57 7.7 45.9
21:10 1021 30.15 850 25.1 16.2 61.1 57 7.7 45.9
21:15 1021 30.15 850 25.1 16.2 61.1 57 7.7 45.9
21:20 1020 30.12 850 25.1 16.1 61 57 7.6 45.8
21:25 1020 30.12 850 25.1 16.1 60.9 57 7.7 45.9
21:30 1021 30.15 850 25.1 16.1 61 57 7.6 45.8
21:35 1021 30.15 850 25.1 16.1 61 57 7.6 45.8
21:40 1021 30.15 850 25.1 16.1 60.9 57 7.7 45.8
21:45 1021 30.15 850 25.1 16.1 60.9 57 7.7 45.8
21:50 1021 30.15 850 25.1 16.1 61 56 7.6 45.6
21:55 1022 30.18 851 25.13 16.2 61.1 57 7.7 45.9
22:00 1022 30.18 851 25.13 15.5 59.9 68 9.7 49.5
22:05 1022 30.18 851 25.13 14.4 57.8 69 8.7 47.7
22:10 1022 30.18 851 25.13 14.3 57.7 74 9.7 49.4
22:15 1022 30.18 852 25.16 14 57.2 78 10.3 50.6
22:20 1023 30.21 852 25.16 13.6 56.5 80 10.2 50.4
22:25 1023 30.21 852 25.16 13.5 56.3 81 10.3 50.6
22:30 1023 30.21 852 25.16 13.5 56.3 80 10.2 50.3
22:35 1023 30.21 852 25.16 13.5 56.3 80 10.2 50.3
22:40 1023 30.21 852 25.16 13.4 56.1 84 10.7 51.2
22:45 1023 30.21 852 25.16 13.2 55.7 84 10.6 51
22:50 1023 30.21 852 25.16 13.1 55.6 84 10.5 50.8
22:55 1023 30.21 852 25.16 13.2 55.8 84 10.6 51.1
23:00 1023 30.21 852 25.16 13.4 56.2 82 10.4 50.7
23:05 1023 30.21 853 25.19 13.5 56.2 81 10.3 50.6
23:10 1024 30.24 853 25.19 12.9 55.2 84 10.3 50.6
23:15 1023 30.21 853 25.19 12.6 54.6 86 10.4 50.7
23:20 1023 30.21 852 25.16 12.3 54.1 89 10.5 50.9
23:25 1023 30.21 852 25.16 12.1 53.8 88 10.3 50.5
23:30 1024 30.24 853 25.19 12 53.6 89 10.2 50.4
23:35 1024 30.24 853 25.19 12 53.5 90 10.3 50.5
23:40 1024 30.24 853 25.19 11.7 53.1 90 10.1 50.2
23:45 1024 30.24 853 25.19 11.5 52.7 89 9.8 49.7
23:50 1024 30.24 853 25.19 11.3 52.4 89 9.6 49.2
23:55 1024 30.24 853 25.19 11.3 52.3 89 9.5 49.1
24:00 1024 30.24 853 25.19 11.2 52.2 88 9.3 48.8